Aktualne dane pomiarowe

Uwaga, wersja testowa! Automatyczne pobieranie danych za pomocą narzędzi lub skryptów to umożliwiających jest zabronione.

Dane meteo z obszaru Polski uzyskane na podstawie depesz SYNOP pobieranych co godzinę z NWS. Najedź myszką na symbol przedstawiony w tabeli, aby uzyskać informacje co do jego znaczenia. Prosimy pamiętać, że to testowa wersja strony, która jeszcze nie jest ukończona. Stworzono również jest krótki FAQ dotyczący korzystania z tej podstrony Anomalie temperatury w chwili obecnej odniesione są do okresu referencyjnego 1951-2016. Okres ten będzie później zmieniony na 1981-2010. Kliknij ikonę aby pobrać plik CSV. Kliknij ikonę aby wygenerować mapę synoptyczną dla danego terminu.

Wybierz Datę:    

        

Warszawa-Okęcie (12375)

Dane terminowe dla wybranej stacji. Kliknij datę, aby otrzymać dane z tego terminu dla wszystkich stacji.

TemperaturaZachmurzenieWiatrCiśnienieOpadyPogoda
 Data t td wb tx tn tg rh  Nt Nl Cl Cm Ch ws wd g1 g2 wx mslp ppp ch 24h 12h t ww ww w1 w2  
2019-08-08 23:00:00 17.4 13.0 14.5--- 7535.0wxwxwxwxwx3wx8831012.2 999.6 1.5---------
2019-08-08 22:00:00 16.9 13.1 14.4--- 7835.0wx-wxwx1wx--11011.4 998.8 0.4---------
2019-08-08 21:00:00 18.3 12.8 14.7--- 7035.0wx-wxwx2wx--21011.1 998.5 0.4---------
2019-08-08 20:00:00 19.4 12.7 15.1--- 6535.0wx-wx1wx---1010.6 998.1 0.2---------
2019-08-08 19:00:00 20.5 12.6 15.5--- 6135.0wx-wxwx1wx--11010.9 998.4 0.7---------
2019-08-08 18:00:00 22.6 11.7 16.0 25.6 18.5- 5035.0wx-wx3wx-1231010.5 998.1 0.4- 0.012------
2019-08-08 17:00:00 23.8 11.6 16.4--- 4635.0wxwxwxwx4wx--41010.2 997.9 0.6---------
2019-08-08 16:00:00 24.0 11.1 16.3--- 4435.0wxwxwxwx5wx---1010.0 997.7 0.4---------
2019-08-08 15:00:00 25.0 10.9 16.6--- 4135.0wxwxwx7wx---1010.0 997.7 0.4---------
2019-08-08 14:00:00 25.1 10.6 16.5--- 4035.0wxwxwx7wx121271009.6 997.3 0.5---------
2019-08-08 13:00:00 24.9 11.5 16.8--- 4335.0wxwxwx8wx--81009.6 997.3 0.9---------
2019-08-08 12:00:00 24.2 12.9 17.2--- 4935.0wxwxwx7wx-1471009.6 997.3 1.3- 0.06------
2019-08-08 11:00:00 23.6 13.3 17.2--- 5235.0wxwxwx8wx-1281009.1 996.8 1.6---------
2019-08-08 10:00:00 22.8 14.2 17.3--- 5835.0wxwxwx8wx-1281008.8 996.4 1.8---------
2019-08-08 09:00:00 22.0 15.0 17.4--- 6535.0wxwxwx8wx131481008.4 996.0 1.9---------
2019-08-08 08:00:00 20.7 15.6 17.3--- 7335.0wxwxwx8wx-1281007.6 995.2 2.1---------
2019-08-08 07:00:00 19.5 16.8 17.6--- 8427.0wxwxwx6wx--61007.1 994.6 1.9---------
2019-08-08 06:00:00 18.5 17.1 17.5 23.6 18.0 18 9223.0wxwxwx5wx-1051006.6 994.1 1.7 4.6 5.012wx-w1w2- 2.3
2019-08-08 05:00:00 18.3 17.4 17.6--- 9525.0wxwxwx5wx---1005.6 993.1 0.6---------
2019-08-08 04:00:00 18.1 17.4 17.6--- 9627.0wxwxwx4wx---1005.2 992.7 0.2---wx---
2019-08-08 03:00:00 18.5 17.8 18.0--- 9618.0wxwxwxwx4wx--41004.9 992.4 -0.1---wx-w1w2--
2019-08-08 02:00:00 18.9 18.2 18.4--- 9610.0wxwxwxwx5wx--51005.0 992.5 -0.8---wx---
2019-08-08 01:00:00 19.0 18.4 18.6--- 9610.0wxwxwxwx0---01005.0 992.5 -0.8---wx-w1w2--
2019-08-08 00:00:00 18.9 18.2 18.4--- 9610.0wxwxwx0----1005.0 992.5 -0.2---wx-w1w2--
2019-08-07 23:00:00 19.4 18.3 18.6--- 9315.0wxwxwx0---01005.8 993.3 0.3---wx-w1w2--
2019-08-07 22:00:00 20.4 17.9 18.6--- 868.0wxwxwx4wx--41005.7 993.3 -0.1---wx---
2019-08-07 21:00:00 21.6 16.6 18.2--- 7335.0wx-wxwx2wx--21005.1 992.7 -1.1---------
2019-08-07 20:00:00 22.4 16.5 18.4--- 6935.0wx-wx2wx---1005.3 993.0 -0.9---------
2019-08-07 19:00:00 23.1 17.0 19.0--- 6935.0wxwxwxwx1wx---1005.7 993.4 -1.3---------
2019-08-07 18:00:00 23.6 16.5 18.9 26.7 20.8- 6435.0wx-wxwx1wx--11006.1 993.8 -0.9- 0.012------
2019-08-07 17:00:00 25.1 16.1 19.2--- 5735.0wxwxwxwxwx2wx--21006.1 993.9 -1.3---------
2019-08-07 16:00:00 25.6 16.3 19.5--- 5735.0wxwxwxwxwx3wx--31006.9 994.7 -0.6---------
2019-08-07 15:00:00 26.1 15.0 19.0--- 5035.0wxwxwxwxwx2wx--21006.9 994.7 -1.2---------
2019-08-07 14:00:00 26.6 15.4 19.4--- 5035.0wxwxwxwxwx1wx---1007.4 995.2 -1.1---------
2019-08-07 13:00:00 25.5 14.4 18.5--- 5035.0wxwxwxwx3wx--31007.5 995.3 -1.0---------
2019-08-07 12:00:00 25.2 15.3 18.8--- 5435.0wxwxwxwx2wx--21008.2 995.9 -0.5- 0.06------
2019-08-07 11:00:00 25.2 15.3 18.8--- 5435.0wxwxwxwxwx3wx--31008.6 996.3 0.4---------
2019-08-07 10:00:00 25.1 16.1 19.2--- 5715.0wxwxwxwxwx2wx--21008.6 996.3 0.5---------
2019-08-07 09:00:00 24.4 16.2 19.0--- 6035.0wxwxwxwx2wx--21008.7 996.4 0.7---------
2019-08-07 08:00:00 23.4 16.3 18.7--- 6422.0wx-wxwx2wx--21008.2 995.9 -0.3---------
2019-08-07 07:00:00 22.3 16.4 18.3--- 6935.0wx-wxwx2wx--21008.2 995.8 -0.1---------
2019-08-07 06:00:00 20.8 16.5 17.8 25.5 18.0 17 7635.0wx-wxwx2wx--21008.1 995.7 0.5- 0.012----- 7.4
2019-08-07 05:00:00 19.6 16.0 17.1--- 8035.0wxwxwxwx1wx--11008.7 996.2 0.8---------
2019-08-07 04:00:00 19.3 15.5 16.7--- 7935.0wx-wx1wx---1008.4 995.9 0.1---------
2019-08-07 03:00:00 19.3 15.3 16.6--- 7835.0wx-wx1wx--11007.7 995.2 -0.3---------
2019-08-07 02:00:00 20.3 15.4 17.0--- 7335.0wxwxwxwx1wx--11007.9 995.4 -0.4---------
2019-08-07 01:00:00 20.8 14.5 16.7--- 6735.0wxwxwxwx4wx--41008.2 995.8 -0.3---wx---
2019-08-07 00:00:00 19.4 14.5 16.1--- 7335.0wxwxwxwx2wx--21008.0 995.5 -0.5- 0.06wx---
1.7 ms

 

Print Friendly, PDF & Email